sensor_id;sensor_type;location;lat;lon;timestamp;P1;durP1;ratioP1;P2;durP2;ratioP2
70981;SDS011;58640;51.320;9.456;2023-08-07T00:00:22;1.70;;;0.57;;
70981;SDS011;58640;51.320;9.456;2023-08-07T00:02:48;0.85;;;0.77;;
70981;SDS011;58640;51.320;9.456;2023-08-07T00:05:13;2.58;;;0.60;;
70981;SDS011;58640;51.320;9.456;2023-08-07T00:07:39;0.50;;;0.45;;
70981;SDS011;58640;51.320;9.456;2023-08-07T00:10:05;2.75;;;0.50;;
70981;SDS011;58640;51.320;9.456;2023-08-07T00:12:31;1.85;;;0.60;;
70981;SDS011;58640;51.320;9.456;2023-08-07T00:14:56;1.73;;;0.70;;
70981;SDS011;58640;51.320;9.456;2023-08-07T00:17:21;1.67;;;0.52;;
70981;SDS011;58640;51.320;9.456;2023-08-07T00:19:47;1.10;;;1.10;;
70981;SDS011;58640;51.320;9.456;2023-08-07T00:22:12;1.95;;;0.70;;
70981;SDS011;58640;51.320;9.456;2023-08-07T00:24:37;0.50;;;0.50;;
70981;SDS011;58640;51.320;9.456;2023-08-07T00:27:03;1.73;;;0.50;;
70981;SDS011;58640;51.320;9.456;2023-08-07T00:29:28;2.10;;;0.60;;
70981;SDS011;58640;51.320;9.456;2023-08-07T00:31:54;2.28;;;0.80;;
70981;SDS011;58640;51.320;9.456;2023-08-07T00:34:19;1.10;;;0.80;;
70981;SDS011;58640;51.320;9.456;2023-08-07T00:36:44;1.88;;;0.95;;
70981;SDS011;58640;51.320;9.456;2023-08-07T00:39:10;2.00;;;0.80;;
70981;SDS011;58640;51.320;9.456;2023-08-07T00:41:35;1.02;;;0.80;;
70981;SDS011;58640;51.320;9.456;2023-08-07T00:44:01;1.58;;;0.60;;
70981;SDS011;58640;51.320;9.456;2023-08-07T00:46:26;0.60;;;0.60;;
70981;SDS011;58640;51.320;9.456;2023-08-07T00:48:54;0.63;;;0.63;;
70981;SDS011;58640;51.320;9.456;2023-08-07T00:51:20;1.80;;;0.73;;
70981;SDS011;58640;51.320;9.456;2023-08-07T00:53:46;4.60;;;0.80;;
70981;SDS011;58640;51.320;9.456;2023-08-07T00:56:13;0.70;;;0.70;;
70981;SDS011;58640;51.320;9.456;2023-08-07T00:58:39;0.98;;;0.45;;
70981;SDS011;58640;51.320;9.456;2023-08-07T01:01:05;1.08;;;0.57;;
70981;SDS011;58640;51.320;9.456;2023-08-07T01:03:31;0.57;;;0.57;;
70981;SDS011;58640;51.320;9.456;2023-08-07T01:05:57;0.73;;;0.60;;
70981;SDS011;58640;51.320;9.456;2023-08-07T01:08:25;0.65;;;0.50;;
70981;SDS011;58640;51.320;9.456;2023-08-07T01:16:42;0.73;;;0.40;;
70981;SDS011;58640;51.320;9.456;2023-08-07T01:19:14;0.35;;;0.35;;
70981;SDS011;58640;51.320;9.456;2023-08-07T01:21:48;1.13;;;0.60;;
70981;SDS011;58640;51.320;9.456;2023-08-07T01:24:13;2.42;;;0.50;;
70981;SDS011;58640;51.320;9.456;2023-08-07T01:26:39;0.80;;;0.40;;
70981;SDS011;58640;51.320;9.456;2023-08-07T01:29:19;1.98;;;0.40;;
70981;SDS011;58640;51.320;9.456;2023-08-07T01:31:52;0.20;;;0.20;;
70981;SDS011;58640;51.320;9.456;2023-08-07T01:34:19;0.40;;;0.40;;
70981;SDS011;58640;51.320;9.456;2023-08-07T01:36:48;0.30;;;0.30;;
70981;SDS011;58640;51.320;9.456;2023-08-07T01:39:16;0.32;;;0.32;;
70981;SDS011;58640;51.320;9.456;2023-08-07T01:41:43;0.90;;;0.40;;
70981;SDS011;58640;51.320;9.456;2023-08-07T01:44:09;0.30;;;0.30;;
70981;SDS011;58640;51.320;9.456;2023-08-07T01:46:35;0.43;;;0.20;;
70981;SDS011;58640;51.320;9.456;2023-08-07T01:49:00;2.38;;;0.30;;
70981;SDS011;58640;51.320;9.456;2023-08-07T01:51:26;0.17;;;0.17;;
70981;SDS011;58640;51.320;9.456;2023-08-07T01:53:51;5.18;;;1.55;;
70981;SDS011;58640;51.320;9.456;2023-08-07T01:56:17;0.20;;;0.20;;
70981;SDS011;58640;51.320;9.456;2023-08-07T01:58:43;0.82;;;0.20;;
70981;SDS011;58640;51.320;9.456;2023-08-07T02:01:08;0.40;;;0.40;;
70981;SDS011;58640;51.320;9.456;2023-08-07T02:03:33;0.20;;;0.20;;
70981;SDS011;58640;51.320;9.456;2023-08-07T02:05:59;0.20;;;0.20;;
70981;SDS011;58640;51.320;9.456;2023-08-07T02:08:24;0.25;;;0.20;;
70981;SDS011;58640;51.320;9.456;2023-08-07T02:10:49;1.70;;;0.30;;
70981;SDS011;58640;51.320;9.456;2023-08-07T02:13:15;1.75;;;0.40;;
70981;SDS011;58640;51.320;9.456;2023-08-07T02:15:40;1.65;;;0.20;;
70981;SDS011;58640;51.320;9.456;2023-08-07T02:18:05;0.20;;;0.13;;
70981;SDS011;58640;51.320;9.456;2023-08-07T02:20:31;0.47;;;0.28;;
70981;SDS011;58640;51.320;9.456;2023-08-07T02:22:56;1.08;;;0.30;;
70981;SDS011;58640;51.320;9.456;2023-08-07T02:25:22;0.40;;;0.32;;
70981;SDS011;58640;51.320;9.456;2023-08-07T02:27:47;0.30;;;0.25;;
70981;SDS011;58640;51.320;9.456;2023-08-07T02:30:12;0.20;;;0.20;;
70981;SDS011;58640;51.320;9.456;2023-08-07T02:32:38;1.55;;;0.28;;
70981;SDS011;58640;51.320;9.456;2023-08-07T02:35:06;2.08;;;0.28;;
70981;SDS011;58640;51.320;9.456;2023-08-07T02:37:31;0.80;;;0.28;;
70981;SDS011;58640;51.320;9.456;2023-08-07T02:39:57;1.33;;;0.20;;
70981;SDS011;58640;51.320;9.456;2023-08-07T02:42:22;0.52;;;0.20;;
70981;SDS011;58640;51.320;9.456;2023-08-07T02:44:48;0.47;;;0.30;;
70981;SDS011;58640;51.320;9.456;2023-08-07T02:47:13;0.38;;;0.20;;
70981;SDS011;58640;51.320;9.456;2023-08-07T02:49:38;1.50;;;0.30;;
70981;SDS011;58640;51.320;9.456;2023-08-07T02:52:04;1.75;;;0.30;;
70981;SDS011;58640;51.320;9.456;2023-08-07T02:54:29;0.77;;;0.20;;
70981;SDS011;58640;51.320;9.456;2023-08-07T02:56:55;0.30;;;0.30;;
70981;SDS011;58640;51.320;9.456;2023-08-07T02:59:21;0.20;;;0.20;;
70981;SDS011;58640;51.320;9.456;2023-08-07T03:01:46;0.38;;;0.32;;
70981;SDS011;58640;51.320;9.456;2023-08-07T03:04:11;1.55;;;0.40;;
70981;SDS011;58640;51.320;9.456;2023-08-07T03:06:37;0.30;;;0.30;;
70981;SDS011;58640;51.320;9.456;2023-08-07T03:09:02;0.40;;;0.40;;
70981;SDS011;58640;51.320;9.456;2023-08-07T03:11:28;0.38;;;0.38;;
70981;SDS011;58640;51.320;9.456;2023-08-07T03:13:54;0.40;;;0.40;;
70981;SDS011;58640;51.320;9.456;2023-08-07T03:16:19;0.43;;;0.30;;
70981;SDS011;58640;51.320;9.456;2023-08-07T03:18:44;0.40;;;0.40;;
70981;SDS011;58640;51.320;9.456;2023-08-07T03:21:11;0.38;;;0.38;;
70981;SDS011;58640;51.320;9.456;2023-08-07T03:23:37;0.57;;;0.40;;
70981;SDS011;58640;51.320;9.456;2023-08-07T03:26:12;1.60;;;0.40;;
70981;SDS011;58640;51.320;9.456;2023-08-07T03:28:39;0.88;;;0.45;;
70981;SDS011;58640;51.320;9.456;2023-08-07T03:31:04;0.38;;;0.38;;
70981;SDS011;58640;51.320;9.456;2023-08-07T03:33:31;0.55;;;0.47;;
70981;SDS011;58640;51.320;9.456;2023-08-07T03:35:56;0.50;;;0.50;;
70981;SDS011;58640;51.320;9.456;2023-08-07T03:38:21;0.30;;;0.30;;
70981;SDS011;58640;51.320;9.456;2023-08-07T03:40:47;0.40;;;0.30;;
70981;SDS011;58640;51.320;9.456;2023-08-07T03:43:12;0.40;;;0.40;;
70981;SDS011;58640;51.320;9.456;2023-08-07T03:45:38;0.40;;;0.40;;
70981;SDS011;58640;51.320;9.456;2023-08-07T03:48:04;0.40;;;0.40;;
70981;SDS011;58640;51.320;9.456;2023-08-07T03:50:30;1.02;;;0.63;;
70981;SDS011;58640;51.320;9.456;2023-08-07T03:52:55;0.65;;;0.52;;
70981;SDS011;58640;51.320;9.456;2023-08-07T03:55:21;0.88;;;0.60;;
70981;SDS011;58640;51.320;9.456;2023-08-07T03:57:46;0.40;;;0.40;;
70981;SDS011;58640;51.320;9.456;2023-08-07T04:00:12;0.40;;;0.40;;
70981;SDS011;58640;51.320;9.456;2023-08-07T04:02:38;1.35;;;0.40;;
70981;SDS011;58640;51.320;9.456;2023-08-07T04:05:03;0.45;;;0.38;;
70981;SDS011;58640;51.320;9.456;2023-08-07T04:07:29;0.57;;;0.55;;
70981;SDS011;58640;51.320;9.456;2023-08-07T04:09:54;1.17;;;0.40;;
70981;SDS011;58640;51.320;9.456;2023-08-07T04:12:20;0.43;;;0.30;;
70981;SDS011;58640;51.320;9.456;2023-08-07T04:14:45;1.65;;;0.40;;
70981;SDS011;58640;51.320;9.456;2023-08-07T04:17:10;0.40;;;0.40;;
70981;SDS011;58640;51.320;9.456;2023-08-07T04:19:36;0.30;;;0.30;;
70981;SDS011;58640;51.320;9.456;2023-08-07T04:22:01;0.47;;;0.30;;
70981;SDS011;58640;51.320;9.456;2023-08-07T04:24:27;3.60;;;0.40;;
70981;SDS011;58640;51.320;9.456;2023-08-07T04:26:52;0.30;;;0.30;;
70981;SDS011;58640;51.320;9.456;2023-08-07T04:29:18;0.45;;;0.38;;
70981;SDS011;58640;51.320;9.456;2023-08-07T04:31:43;0.88;;;0.50;;
70981;SDS011;58640;51.320;9.456;2023-08-07T04:34:09;0.40;;;0.30;;
70981;SDS011;58640;51.320;9.456;2023-08-07T04:36:34;1.13;;;0.43;;
70981;SDS011;58640;51.320;9.456;2023-08-07T04:38:59;1.38;;;0.50;;
70981;SDS011;58640;51.320;9.456;2023-08-07T04:41:25;0.52;;;0.40;;
70981;SDS011;58640;51.320;9.456;2023-08-07T04:43:50;0.47;;;0.40;;
70981;SDS011;58640;51.320;9.456;2023-08-07T04:46:15;1.65;;;0.30;;
70981;SDS011;58640;51.320;9.456;2023-08-07T04:48:41;0.88;;;0.30;;
70981;SDS011;58640;51.320;9.456;2023-08-07T04:51:06;0.40;;;0.40;;
70981;SDS011;58640;51.320;9.456;2023-08-07T04:53:32;0.30;;;0.20;;
70981;SDS011;58640;51.320;9.456;2023-08-07T04:55:59;0.30;;;0.30;;
70981;SDS011;58640;51.320;9.456;2023-08-07T04:58:24;0.30;;;0.20;;
70981;SDS011;58640;51.320;9.456;2023-08-07T05:00:54;2.53;;;0.20;;
70981;SDS011;58640;51.320;9.456;2023-08-07T05:03:23;0.10;;;0.10;;
70981;SDS011;58640;51.320;9.456;2023-08-07T05:05:49;0.63;;;0.10;;
70981;SDS011;58640;51.320;9.456;2023-08-07T05:08:15;0.10;;;0.10;;
70981;SDS011;58640;51.320;9.456;2023-08-07T05:10:40;0.10;;;0.10;;
70981;SDS011;58640;51.320;9.456;2023-08-07T05:13:06;1.35;;;0.20;;
70981;SDS011;58640;51.320;9.456;2023-08-07T05:15:31;0.20;;;0.20;;
70981;SDS011;58640;51.320;9.456;2023-08-07T05:17:57;0.20;;;0.20;;
70981;SDS011;58640;51.320;9.456;2023-08-07T05:20:22;0.10;;;0.10;;
70981;SDS011;58640;51.320;9.456;2023-08-07T05:22:48;0.50;;;0.10;;
70981;SDS011;58640;51.320;9.456;2023-08-07T05:25:14;0.10;;;0.10;;
70981;SDS011;58640;51.320;9.456;2023-08-07T05:27:43;0.32;;;0.20;;
70981;SDS011;58640;51.320;9.456;2023-08-07T05:30:10;0.90;;;0.10;;
70981;SDS011;58640;51.320;9.456;2023-08-07T05:32:35;0.30;;;0.30;;
70981;SDS011;58640;51.320;9.456;2023-08-07T05:35:06;0.30;;;0.20;;
70981;SDS011;58640;51.320;9.456;2023-08-07T05:37:33;0.20;;;0.20;;
70981;SDS011;58640;51.320;9.456;2023-08-07T05:39:59;0.20;;;0.20;;
70981;SDS011;58640;51.320;9.456;2023-08-07T05:42:24;0.30;;;0.30;;
70981;SDS011;58640;51.320;9.456;2023-08-07T05:44:49;0.20;;;0.20;;
70981;SDS011;58640;51.320;9.456;2023-08-07T05:47:15;1.33;;;0.20;;
70981;SDS011;58640;51.320;9.456;2023-08-07T05:49:40;0.20;;;0.20;;
70981;SDS011;58640;51.320;9.456;2023-08-07T05:52:06;0.30;;;0.30;;
70981;SDS011;58640;51.320;9.456;2023-08-07T05:54:32;0.55;;;0.20;;
70981;SDS011;58640;51.320;9.456;2023-08-07T05:56:57;0.30;;;0.30;;
70981;SDS011;58640;51.320;9.456;2023-08-07T05:59:23;0.37;;;0.33;;
70981;SDS011;58640;51.320;9.456;2023-08-07T06:01:48;0.40;;;0.40;;
70981;SDS011;58640;51.320;9.456;2023-08-07T06:04:13;1.38;;;0.30;;
70981;SDS011;58640;51.320;9.456;2023-08-07T06:06:39;0.80;;;0.43;;
70981;SDS011;58640;51.320;9.456;2023-08-07T06:09:05;0.40;;;0.40;;
70981;SDS011;58640;51.320;9.456;2023-08-07T06:11:31;0.30;;;0.30;;
70981;SDS011;58640;51.320;9.456;2023-08-07T06:13:56;0.28;;;0.28;;
70981;SDS011;58640;51.320;9.456;2023-08-07T06:16:22;0.85;;;0.50;;
70981;SDS011;58640;51.320;9.456;2023-08-07T06:18:47;0.40;;;0.40;;
70981;SDS011;58640;51.320;9.456;2023-08-07T06:21:13;0.40;;;0.40;;
70981;SDS011;58640;51.320;9.456;2023-08-07T06:23:38;2.42;;;0.52;;
70981;SDS011;58640;51.320;9.456;2023-08-07T06:26:03;0.30;;;0.30;;
70981;SDS011;58640;51.320;9.456;2023-08-07T06:28:29;0.32;;;0.30;;
70981;SDS011;58640;51.320;9.456;2023-08-07T06:31:00;0.60;;;0.50;;
70981;SDS011;58640;51.320;9.456;2023-08-07T06:33:29;0.22;;;0.20;;
70981;SDS011;58640;51.320;9.456;2023-08-07T06:35:56;0.20;;;0.20;;
70981;SDS011;58640;51.320;9.456;2023-08-07T06:38:22;1.10;;;0.20;;
70981;SDS011;58640;51.320;9.456;2023-08-07T06:40:47;0.35;;;0.20;;
70981;SDS011;58640;51.320;9.456;2023-08-07T06:43:13;0.20;;;0.20;;
70981;SDS011;58640;51.320;9.456;2023-08-07T06:45:38;0.10;;;0.10;;
70981;SDS011;58640;51.320;9.456;2023-08-07T06:48:03;0.38;;;0.20;;
70981;SDS011;58640;51.320;9.456;2023-08-07T06:50:29;0.30;;;0.20;;
70981;SDS011;58640;51.320;9.456;2023-08-07T06:52:54;0.10;;;0.10;;
70981;SDS011;58640;51.320;9.456;2023-08-07T06:55:20;0.10;;;0.10;;
70981;SDS011;58640;51.320;9.456;2023-08-07T06:57:45;0.15;;;0.15;;
70981;SDS011;58640;51.320;9.456;2023-08-07T07:00:11;0.10;;;0.10;;
70981;SDS011;58640;51.320;9.456;2023-08-07T07:02:37;2.55;;;0.15;;
70981;SDS011;58640;51.320;9.456;2023-08-07T07:05:02;0.10;;;0.10;;
70981;SDS011;58640;51.320;9.456;2023-08-07T07:07:29;0.20;;;0.20;;
70981;SDS011;58640;51.320;9.456;2023-08-07T07:09:54;0.10;;;0.10;;
70981;SDS011;58640;51.320;9.456;2023-08-07T07:12:20;0.10;;;0.10;;
70981;SDS011;58640;51.320;9.456;2023-08-07T07:14:45;1.45;;;0.10;;
70981;SDS011;58640;51.320;9.456;2023-08-07T07:17:10;0.20;;;0.20;;
70981;SDS011;58640;51.320;9.456;2023-08-07T07:19:36;0.10;;;0.10;;
70981;SDS011;58640;51.320;9.456;2023-08-07T07:22:01;0.10;;;0.10;;
70981;SDS011;58640;51.320;9.456;2023-08-07T07:24:26;0.20;;;0.20;;
70981;SDS011;58640;51.320;9.456;2023-08-07T07:26:52;0.20;;;0.10;;
70981;SDS011;58640;51.320;9.456;2023-08-07T07:29:17;0.20;;;0.20;;
70981;SDS011;58640;51.320;9.456;2023-08-07T07:31:43;0.38;;;0.10;;
70981;SDS011;58640;51.320;9.456;2023-08-07T07:34:09;0.20;;;0.20;;
70981;SDS011;58640;51.320;9.456;2023-08-07T07:36:34;0.17;;;0.17;;
70981;SDS011;58640;51.320;9.456;2023-08-07T07:38:59;0.20;;;0.20;;
70981;SDS011;58640;51.320;9.456;2023-08-07T07:41:25;0.90;;;0.13;;
70981;SDS011;58640;51.320;9.456;2023-08-07T07:43:50;0.20;;;0.20;;
70981;SDS011;58640;51.320;9.456;2023-08-07T07:46:16;0.40;;;0.25;;
70981;SDS011;58640;51.320;9.456;2023-08-07T07:48:41;0.47;;;0.22;;
70981;SDS011;58640;51.320;9.456;2023-08-07T07:51:07;0.17;;;0.17;;
70981;SDS011;58640;51.320;9.456;2023-08-07T07:53:33;0.15;;;0.10;;
70981;SDS011;58640;51.320;9.456;2023-08-07T07:55:59;0.47;;;0.32;;
70981;SDS011;58640;51.320;9.456;2023-08-07T07:58:24;0.30;;;0.30;;
70981;SDS011;58640;51.320;9.456;2023-08-07T08:00:50;0.20;;;0.20;;
70981;SDS011;58640;51.320;9.456;2023-08-07T08:03:18;0.30;;;0.20;;
70981;SDS011;58640;51.320;9.456;2023-08-07T08:05:44;0.20;;;0.20;;
70981;SDS011;58640;51.320;9.456;2023-08-07T08:08:09;0.10;;;0.10;;
70981;SDS011;58640;51.320;9.456;2023-08-07T08:10:35;0.20;;;0.20;;
70981;SDS011;58640;51.320;9.456;2023-08-07T08:13:01;0.20;;;0.20;;
70981;SDS011;58640;51.320;9.456;2023-08-07T08:15:28;1.60;;;0.25;;
70981;SDS011;58640;51.320;9.456;2023-08-07T08:17:54;0.43;;;0.10;;
70981;SDS011;58640;51.320;9.456;2023-08-07T08:20:20;2.05;;;0.20;;
70981;SDS011;58640;51.320;9.456;2023-08-07T08:22:45;0.20;;;0.20;;
70981;SDS011;58640;51.320;9.456;2023-08-07T08:25:11;0.10;;;0.10;;
70981;SDS011;58640;51.320;9.456;2023-08-07T08:27:37;0.20;;;0.20;;
70981;SDS011;58640;51.320;9.456;2023-08-07T08:30:03;0.10;;;0.10;;
70981;SDS011;58640;51.320;9.456;2023-08-07T08:32:29;0.52;;;0.25;;
70981;SDS011;58640;51.320;9.456;2023-08-07T08:34:54;1.48;;;0.10;;
70981;SDS011;58640;51.320;9.456;2023-08-07T08:37:20;0.20;;;0.20;;
70981;SDS011;58640;51.320;9.456;2023-08-07T08:39:46;0.75;;;0.43;;
70981;SDS011;58640;51.320;9.456;2023-08-07T08:42:11;0.82;;;0.30;;
70981;SDS011;58640;51.320;9.456;2023-08-07T08:44:40;0.15;;;0.15;;
70981;SDS011;58640;51.320;9.456;2023-08-07T08:47:27;0.45;;;0.30;;
70981;SDS011;58640;51.320;9.456;2023-08-07T08:50:04;0.45;;;0.30;;
70981;SDS011;58640;51.320;9.456;2023-08-07T08:52:32;0.20;;;0.20;;
70981;SDS011;58640;51.320;9.456;2023-08-07T08:54:58;0.30;;;0.30;;
70981;SDS011;58640;51.320;9.456;2023-08-07T08:57:26;0.40;;;0.40;;
70981;SDS011;58640;51.320;9.456;2023-08-07T08:59:53;0.57;;;0.40;;
70981;SDS011;58640;51.320;9.456;2023-08-07T09:02:21;0.60;;;0.60;;
70981;SDS011;58640;51.320;9.456;2023-08-07T09:04:46;0.90;;;0.90;;
70981;SDS011;58640;51.320;9.456;2023-08-07T09:07:15;0.60;;;0.60;;
70981;SDS011;58640;51.320;9.456;2023-08-07T09:09:41;1.45;;;0.43;;
70981;SDS011;58640;51.320;9.456;2023-08-07T09:12:10;1.33;;;0.70;;
70981;SDS011;58640;51.320;9.456;2023-08-07T09:14:41;1.05;;;0.60;;
70981;SDS011;58640;51.320;9.456;2023-08-07T09:17:08;1.25;;;0.80;;
70981;SDS011;58640;51.320;9.456;2023-08-07T09:19:34;1.23;;;0.82;;
70981;SDS011;58640;51.320;9.456;2023-08-07T09:21:59;2.50;;;0.55;;
70981;SDS011;58640;51.320;9.456;2023-08-07T09:24:25;1.52;;;0.75;;
70981;SDS011;58640;51.320;9.456;2023-08-07T09:26:50;1.40;;;0.60;;
70981;SDS011;58640;51.320;9.456;2023-08-07T09:29:18;2.63;;;0.70;;
70981;SDS011;58640;51.320;9.456;2023-08-07T09:31:43;1.00;;;0.70;;
70981;SDS011;58640;51.320;9.456;2023-08-07T09:34:11;1.70;;;0.80;;
70981;SDS011;58640;51.320;9.456;2023-08-07T09:36:38;2.38;;;0.70;;
70981;SDS011;58640;51.320;9.456;2023-08-07T09:39:04;0.88;;;0.57;;
70981;SDS011;58640;51.320;9.456;2023-08-07T09:41:29;0.80;;;0.70;;
70981;SDS011;58640;51.320;9.456;2023-08-07T09:43:56;1.75;;;1.02;;
70981;SDS011;58640;51.320;9.456;2023-08-07T09:46:22;0.95;;;0.77;;
70981;SDS011;58640;51.320;9.456;2023-08-07T09:48:47;2.17;;;0.85;;
70981;SDS011;58640;51.320;9.456;2023-08-07T09:51:13;0.82;;;0.82;;
70981;SDS011;58640;51.320;9.456;2023-08-07T09:53:39;3.53;;;0.90;;
70981;SDS011;58640;51.320;9.456;2023-08-07T09:56:04;1.52;;;0.80;;
70981;SDS011;58640;51.320;9.456;2023-08-07T09:58:31;1.33;;;0.85;;
70981;SDS011;58640;51.320;9.456;2023-08-07T10:00:58;1.77;;;0.90;;
70981;SDS011;58640;51.320;9.456;2023-08-07T10:03:25;1.23;;;0.85;;
70981;SDS011;58640;51.320;9.456;2023-08-07T10:05:52;0.70;;;0.70;;
70981;SDS011;58640;51.320;9.456;2023-08-07T10:08:17;1.05;;;0.60;;
70981;SDS011;58640;51.320;9.456;2023-08-07T10:10:43;1.10;;;0.98;;
70981;SDS011;58640;51.320;9.456;2023-08-07T10:13:09;3.40;;;1.52;;
70981;SDS011;58640;51.320;9.456;2023-08-07T10:15:37;2.85;;;1.27;;
70981;SDS011;58640;51.320;9.456;2023-08-07T10:18:05;3.15;;;1.80;;
70981;SDS011;58640;51.320;9.456;2023-08-07T10:20:30;6.60;;;1.58;;
70981;SDS011;58640;51.320;9.456;2023-08-07T10:23:00;2.05;;;1.00;;
70981;SDS011;58640;51.320;9.456;2023-08-07T10:25:29;2.00;;;1.02;;
70981;SDS011;58640;51.320;9.456;2023-08-07T10:27:56;1.92;;;1.00;;
70981;SDS011;58640;51.320;9.456;2023-08-07T10:30:25;2.75;;;1.20;;
70981;SDS011;58640;51.320;9.456;2023-08-07T10:32:52;4.32;;;1.23;;
70981;SDS011;58640;51.320;9.456;2023-08-07T10:35:24;2.65;;;1.20;;
70981;SDS011;58640;51.320;9.456;2023-08-07T10:38:06;2.75;;;0.80;;
70981;SDS011;58640;51.320;9.456;2023-08-07T10:40:33;5.05;;;1.42;;
70981;SDS011;58640;51.320;9.456;2023-08-07T10:42:59;2.05;;;1.42;;
70981;SDS011;58640;51.320;9.456;2023-08-07T10:45:37;3.00;;;1.52;;
70981;SDS011;58640;51.320;9.456;2023-08-07T10:48:07;2.75;;;1.10;;
70981;SDS011;58640;51.320;9.456;2023-08-07T10:50:35;2.47;;;1.10;;
70981;SDS011;58640;51.320;9.456;2023-08-07T10:53:20;2.65;;;1.20;;
70981;SDS011;58640;51.320;9.456;2023-08-07T10:55:53;2.95;;;1.30;;
70981;SDS011;58640;51.320;9.456;2023-08-07T10:58:26;1.83;;;0.85;;
70981;SDS011;58640;51.320;9.456;2023-08-07T11:04:19;3.67;;;1.58;;
70981;SDS011;58640;51.320;9.456;2023-08-07T11:06:39;2.17;;;0.95;;
70981;SDS011;58640;51.320;9.456;2023-08-07T11:09:07;3.33;;;1.45;;
70981;SDS011;58640;51.320;9.456;2023-08-07T11:11:47;2.40;;;1.20;;
70981;SDS011;58640;51.320;9.456;2023-08-07T11:16:40;1.20;;;1.10;;
70981;SDS011;58640;51.320;9.456;2023-08-07T11:19:07;4.70;;;1.13;;
70981;SDS011;58640;51.320;9.456;2023-08-07T11:21:33;1.33;;;0.93;;
70981;SDS011;58640;51.320;9.456;2023-08-07T11:23:59;1.77;;;0.93;;
70981;SDS011;58640;51.320;9.456;2023-08-07T11:26:25;1.88;;;0.90;;
70981;SDS011;58640;51.320;9.456;2023-08-07T11:28:52;1.27;;;0.95;;
70981;SDS011;58640;51.320;9.456;2023-08-07T11:31:18;4.65;;;1.02;;
70981;SDS011;58640;51.320;9.456;2023-08-07T11:33:44;1.38;;;0.63;;
70981;SDS011;58640;51.320;9.456;2023-08-07T11:36:13;2.53;;;1.08;;
70981;SDS011;58640;51.320;9.456;2023-08-07T11:38:40;9.02;;;1.48;;
70981;SDS011;58640;51.320;9.456;2023-08-07T11:41:10;3.65;;;1.00;;
70981;SDS011;58640;51.320;9.456;2023-08-07T11:43:36;4.15;;;1.00;;
70981;SDS011;58640;51.320;9.456;2023-08-07T11:46:03;5.13;;;1.08;;
70981;SDS011;58640;51.320;9.456;2023-08-07T11:48:30;4.57;;;1.48;;
70981;SDS011;58640;51.320;9.456;2023-08-07T11:50:59;5.55;;;1.30;;
70981;SDS011;58640;51.320;9.456;2023-08-07T11:53:25;4.32;;;1.02;;
70981;SDS011;58640;51.320;9.456;2023-08-07T11:55:53;5.68;;;1.45;;
70981;SDS011;58640;51.320;9.456;2023-08-07T11:58:20;4.38;;;1.40;;
70981;SDS011;58640;51.320;9.456;2023-08-07T12:00:47;5.18;;;1.15;;
70981;SDS011;58640;51.320;9.456;2023-08-07T12:03:28;4.15;;;1.95;;
70981;SDS011;58640;51.320;9.456;2023-08-07T12:05:55;2.67;;;1.30;;
70981;SDS011;58640;51.320;9.456;2023-08-07T12:08:21;4.85;;;1.20;;
70981;SDS011;58640;51.320;9.456;2023-08-07T12:10:50;1.90;;;1.10;;
70981;SDS011;58640;51.320;9.456;2023-08-07T12:13:19;2.17;;;0.98;;
70981;SDS011;58640;51.320;9.456;2023-08-07T12:15:46;3.83;;;1.25;;
70981;SDS011;58640;51.320;9.456;2023-08-07T12:18:11;5.45;;;1.63;;
70981;SDS011;58640;51.320;9.456;2023-08-07T12:20:38;2.45;;;0.95;;
70981;SDS011;58640;51.320;9.456;2023-08-07T12:23:03;5.20;;;1.17;;
70981;SDS011;58640;51.320;9.456;2023-08-07T12:25:28;10.35;;;1.70;;
70981;SDS011;58640;51.320;9.456;2023-08-07T12:27:54;4.90;;;1.50;;
70981;SDS011;58640;51.320;9.456;2023-08-07T12:30:19;4.75;;;1.63;;
70981;SDS011;58640;51.320;9.456;2023-08-07T12:32:44;3.25;;;1.00;;
70981;SDS011;58640;51.320;9.456;2023-08-07T12:35:10;2.65;;;1.40;;
70981;SDS011;58640;51.320;9.456;2023-08-07T12:37:36;2.42;;;1.45;;
70981;SDS011;58640;51.320;9.456;2023-08-07T12:40:01;5.53;;;1.55;;
70981;SDS011;58640;51.320;9.456;2023-08-07T12:42:27;2.97;;;1.27;;
70981;SDS011;58640;51.320;9.456;2023-08-07T12:44:53;6.63;;;2.22;;
70981;SDS011;58640;51.320;9.456;2023-08-07T12:47:18;7.22;;;1.83;;
70981;SDS011;58640;51.320;9.456;2023-08-07T12:49:44;6.40;;;1.70;;
70981;SDS011;58640;51.320;9.456;2023-08-07T12:52:11;4.93;;;1.70;;
70981;SDS011;58640;51.320;9.456;2023-08-07T12:54:36;7.05;;;1.45;;
70981;SDS011;58640;51.320;9.456;2023-08-07T12:57:01;7.00;;;1.55;;
70981;SDS011;58640;51.320;9.456;2023-08-07T12:59:27;4.70;;;1.58;;
70981;SDS011;58640;51.320;9.456;2023-08-07T13:01:52;3.35;;;1.42;;
70981;SDS011;58640;51.320;9.456;2023-08-07T13:04:18;4.90;;;1.65;;
70981;SDS011;58640;51.320;9.456;2023-08-07T13:06:43;4.78;;;1.60;;
70981;SDS011;58640;51.320;9.456;2023-08-07T13:09:09;6.60;;;1.45;;
70981;SDS011;58640;51.320;9.456;2023-08-07T13:11:34;2.47;;;1.15;;
70981;SDS011;58640;51.320;9.456;2023-08-07T13:13:59;10.35;;;1.90;;
70981;SDS011;58640;51.320;9.456;2023-08-07T13:16:25;3.88;;;1.58;;
70981;SDS011;58640;51.320;9.456;2023-08-07T13:18:50;3.42;;;1.38;;
70981;SDS011;58640;51.320;9.456;2023-08-07T13:21:15;4.45;;;1.48;;
70981;SDS011;58640;51.320;9.456;2023-08-07T13:23:41;3.67;;;1.48;;
70981;SDS011;58640;51.320;9.456;2023-08-07T13:26:06;7.43;;;1.73;;
70981;SDS011;58640;51.320;9.456;2023-08-07T13:28:31;5.80;;;1.50;;
70981;SDS011;58640;51.320;9.456;2023-08-07T13:30:57;3.63;;;1.80;;
70981;SDS011;58640;51.320;9.456;2023-08-07T13:33:23;5.28;;;1.88;;
70981;SDS011;58640;51.320;9.456;2023-08-07T13:35:48;9.70;;;1.95;;
70981;SDS011;58640;51.320;9.456;2023-08-07T13:38:14;8.35;;;2.20;;
70981;SDS011;58640;51.320;9.456;2023-08-07T13:40:40;4.95;;;1.83;;
70981;SDS011;58640;51.320;9.456;2023-08-07T13:43:06;6.80;;;1.77;;
70981;SDS011;58640;51.320;9.456;2023-08-07T13:45:34;5.35;;;2.53;;
70981;SDS011;58640;51.320;9.456;2023-08-07T13:47:59;6.25;;;1.77;;
70981;SDS011;58640;51.320;9.456;2023-08-07T13:50:25;7.80;;;1.52;;
70981;SDS011;58640;51.320;9.456;2023-08-07T13:52:50;4.90;;;1.42;;
70981;SDS011;58640;51.320;9.456;2023-08-07T13:55:16;3.40;;;1.17;;
70981;SDS011;58640;51.320;9.456;2023-08-07T13:57:42;5.28;;;1.80;;
70981;SDS011;58640;51.320;9.456;2023-08-07T14:00:08;4.95;;;1.10;;
70981;SDS011;58640;51.320;9.456;2023-08-07T14:02:33;4.63;;;1.23;;
70981;SDS011;58640;51.320;9.456;2023-08-07T14:04:59;2.70;;;1.08;;
70981;SDS011;58640;51.320;9.456;2023-08-07T14:07:25;4.07;;;1.42;;
70981;SDS011;58640;51.320;9.456;2023-08-07T14:09:50;5.55;;;1.50;;
70981;SDS011;58640;51.320;9.456;2023-08-07T14:12:16;5.35;;;1.25;;
70981;SDS011;58640;51.320;9.456;2023-08-07T14:14:41;5.93;;;1.25;;
70981;SDS011;58640;51.320;9.456;2023-08-07T14:17:06;2.17;;;1.20;;
70981;SDS011;58640;51.320;9.456;2023-08-07T14:19:32;5.80;;;1.52;;
70981;SDS011;58640;51.320;9.456;2023-08-07T14:21:57;4.47;;;1.60;;
70981;SDS011;58640;51.320;9.456;2023-08-07T14:24:22;3.22;;;1.50;;
70981;SDS011;58640;51.320;9.456;2023-08-07T14:26:48;6.65;;;1.45;;
70981;SDS011;58640;51.320;9.456;2023-08-07T14:29:13;7.10;;;1.45;;
70981;SDS011;58640;51.320;9.456;2023-08-07T14:31:39;5.32;;;1.35;;
70981;SDS011;58640;51.320;9.456;2023-08-07T14:34:04;4.05;;;1.10;;
70981;SDS011;58640;51.320;9.456;2023-08-07T14:36:30;5.00;;;1.50;;
70981;SDS011;58640;51.320;9.456;2023-08-07T14:38:55;2.72;;;1.33;;
70981;SDS011;58640;51.320;9.456;2023-08-07T14:41:21;2.08;;;0.93;;
70981;SDS011;58640;51.320;9.456;2023-08-07T14:43:46;5.10;;;1.10;;
70981;SDS011;58640;51.320;9.456;2023-08-07T14:46:12;4.00;;;1.02;;
70981;SDS011;58640;51.320;9.456;2023-08-07T14:48:37;4.82;;;1.95;;
70981;SDS011;58640;51.320;9.456;2023-08-07T14:51:03;5.53;;;1.30;;
70981;SDS011;58640;51.320;9.456;2023-08-07T14:53:28;3.55;;;1.30;;